createdAt,value
2023-04-09T00:00:26.384Z,36.40
2023-04-09T00:03:09.074Z,33.10
2023-04-09T00:05:41.222Z,28.10
2023-04-09T00:08:09.639Z,24.40
2023-04-09T00:10:38.896Z,23.00
2023-04-09T00:13:08.222Z,21.40
2023-04-09T00:15:37.279Z,20.60
2023-04-09T00:18:05.749Z,20.60
2023-04-09T00:20:33.991Z,20.60
2023-04-09T00:23:02.328Z,19.80
2023-04-09T00:25:30.913Z,19.60
2023-04-09T00:27:59.299Z,20.10
2023-04-09T00:30:31.347Z,20.20
2023-04-09T00:33:00.595Z,21.00
2023-04-09T00:35:32.025Z,21.20
2023-04-09T00:38:00.494Z,20.20
2023-04-09T00:40:28.805Z,19.80
2023-04-09T00:42:57.457Z,21.50
2023-04-09T00:45:25.734Z,20.60
2023-04-09T00:47:54.050Z,20.10
2023-04-09T00:50:22.700Z,20.40
2023-04-09T00:52:51.553Z,19.80
2023-04-09T00:55:19.803Z,19.10
2023-04-09T00:57:48.088Z,18.40
2023-04-09T01:00:16.424Z,19.40
2023-04-09T01:02:53.282Z,19.00
2023-04-09T01:05:22.521Z,17.80
2023-04-09T01:08:25.516Z,18.70
2023-04-09T01:11:22.677Z,19.10
2023-04-09T01:14:35.084Z,19.30
2023-04-09T01:17:17.278Z,19.80
2023-04-09T01:20:09.841Z,19.50
2023-04-09T01:22:41.736Z,18.90
2023-04-09T01:25:12.870Z,19.20
2023-04-09T01:28:08.569Z,18.50
2023-04-09T01:30:36.804Z,18.70
2023-04-09T01:33:05.448Z,19.90
2023-04-09T01:35:33.739Z,20.20
2023-04-09T01:38:02.853Z,20.80
2023-04-09T01:40:31.579Z,20.70
2023-04-09T01:43:00.474Z,20.30
2023-04-09T01:45:32.229Z,20.40
2023-04-09T01:48:01.179Z,20.50
2023-04-09T01:50:33.953Z,21.20
2023-04-09T01:53:02.744Z,21.60
2023-04-09T01:55:31.028Z,20.10
2023-04-09T01:57:59.236Z,21.30
2023-04-09T02:00:32.016Z,19.40
2023-04-09T02:03:07.134Z,19.40
2023-04-09T02:05:41.721Z,18.40
2023-04-09T02:08:13.675Z,17.90
2023-04-09T02:10:42.309Z,17.70
2023-04-09T02:13:10.627Z,17.70
2023-04-09T02:15:38.953Z,16.90
2023-04-09T02:18:21.689Z,15.80
2023-04-09T02:20:49.976Z,15.60
2023-04-09T02:23:20.859Z,15.40
2023-04-09T02:25:49.237Z,15.50
2023-04-09T02:28:20.273Z,15.20
2023-04-09T02:30:48.687Z,14.90
2023-04-09T02:33:17.003Z,15.60
2023-04-09T02:35:46.640Z,15.00
2023-04-09T02:38:16.239Z,15.40
2023-04-09T02:40:44.482Z,14.80
2023-04-09T02:43:13.069Z,14.40
2023-04-09T02:45:41.321Z,15.00
2023-04-09T02:48:13.335Z,13.80
2023-04-09T02:50:42.704Z,14.20
2023-04-09T02:53:11.443Z,14.50
2023-04-09T02:55:39.711Z,13.80
2023-04-09T02:58:08.124Z,13.40
2023-04-09T03:00:40.076Z,13.60
2023-04-09T03:03:09.078Z,13.20
2023-04-09T03:05:38.324Z,12.90
2023-04-09T03:08:07.216Z,12.60
2023-04-09T03:10:37.052Z,12.60
2023-04-09T03:13:05.568Z,12.40
2023-04-09T03:15:33.811Z,13.30
2023-04-09T03:18:03.265Z,12.10
2023-04-09T03:20:32.610Z,12.40
2023-04-09T03:23:03.830Z,11.80
2023-04-09T03:25:37.296Z,11.80
2023-04-09T03:28:12.682Z,11.20
2023-04-09T03:30:49.339Z,11.80
2023-04-09T03:33:19.798Z,12.10
2023-04-09T03:35:53.633Z,10.90
2023-04-09T03:38:32.153Z,12.10
2023-04-09T03:41:01.705Z,12.10
2023-04-09T03:43:31.406Z,12.30
2023-04-09T03:45:59.610Z,11.40
2023-04-09T03:48:28.254Z,11.10
2023-04-09T03:50:57.939Z,11.30
2023-04-09T03:53:32.670Z,11.70
2023-04-09T03:56:04.780Z,10.90
2023-04-09T03:58:33.544Z,11.10
2023-04-09T04:01:02.459Z,11.10
2023-04-09T04:03:37.939Z,11.00
2023-04-09T04:06:35.966Z,11.10
2023-04-09T04:09:22.747Z,10.70
2023-04-09T04:11:56.170Z,11.30
2023-04-09T04:14:27.561Z,11.00
2023-04-09T04:17:00.532Z,10.70
2023-04-09T04:19:33.179Z,10.70
2023-04-09T04:22:01.522Z,10.80
2023-04-09T04:24:33.890Z,10.70
2023-04-09T04:27:03.046Z,10.90
2023-04-09T04:29:34.321Z,10.90
2023-04-09T04:32:06.738Z,10.90
2023-04-09T04:34:38.050Z,10.80
2023-04-09T04:37:22.026Z,11.00
2023-04-09T04:39:51.907Z,10.30
2023-04-09T04:42:20.777Z,10.40
2023-04-09T04:44:49.781Z,10.10
2023-04-09T04:47:53.557Z,9.60
2023-04-09T04:50:22.628Z,10.70
2023-04-09T04:53:07.784Z,10.30
2023-04-09T04:55:43.503Z,10.30
2023-04-09T04:58:14.589Z,10.40
2023-04-09T05:00:47.407Z,10.20
2023-04-09T05:03:16.369Z,10.10
2023-04-09T05:05:55.544Z,10.00
2023-04-09T05:08:24.677Z,10.00
2023-04-09T05:10:56.315Z,10.50
2023-04-09T05:13:27.994Z,10.00
2023-04-09T05:15:56.573Z,10.00
2023-04-09T05:18:25.869Z,9.90
2023-04-09T05:20:54.031Z,9.60
2023-04-09T05:23:23.648Z,9.30
2023-04-09T05:25:52.366Z,10.00
2023-04-09T05:28:31.031Z,9.50
2023-04-09T05:31:13.504Z,9.60
2023-04-09T05:33:48.255Z,9.50
2023-04-09T05:36:21.056Z,8.90
2023-04-09T05:38:56.384Z,8.90
2023-04-09T05:41:24.645Z,9.60
2023-04-09T05:44:07.942Z,9.50
2023-04-09T05:46:47.055Z,8.90
2023-04-09T05:49:18.154Z,9.00
2023-04-09T05:51:48.456Z,9.30
2023-04-09T05:54:18.911Z,9.40
2023-04-09T05:56:48.885Z,8.50
2023-04-09T05:59:23.093Z,9.20
2023-04-09T06:01:51.756Z,8.80
2023-04-09T06:04:21.555Z,8.60
2023-04-09T06:06:53.630Z,8.40
2023-04-09T06:09:22.615Z,9.10
2023-04-09T06:11:50.931Z,7.90
2023-04-09T06:14:19.576Z,8.50
2023-04-09T06:16:51.390Z,8.70
2023-04-09T06:19:19.882Z,8.90
2023-04-09T06:21:48.549Z,8.50
2023-04-09T06:24:17.528Z,8.50
2023-04-09T06:26:46.277Z,8.50
2023-04-09T06:29:17.836Z,8.50
2023-04-09T06:31:46.802Z,8.60
2023-04-09T06:34:15.100Z,8.10
2023-04-09T06:36:47.408Z,8.90
2023-04-09T06:39:16.204Z,8.10
2023-04-09T06:41:44.695Z,8.10
2023-04-09T06:44:26.431Z,7.70
2023-04-09T06:46:54.747Z,8.00
2023-04-09T06:49:27.595Z,7.80
2023-04-09T06:51:56.848Z,8.40
2023-04-09T06:54:25.521Z,7.70
2023-04-09T06:56:57.762Z,7.50
2023-04-09T06:59:26.685Z,8.00
2023-04-09T07:01:56.126Z,7.60
2023-04-09T07:04:26.443Z,8.00
2023-04-09T07:06:57.018Z,8.30
2023-04-09T07:09:25.423Z,8.10
2023-04-09T07:11:56.604Z,8.60
2023-04-09T07:14:26.456Z,7.10
2023-04-09T07:16:54.948Z,7.70
2023-04-09T07:19:25.496Z,7.80
2023-04-09T07:21:54.182Z,7.70
2023-04-09T07:24:22.599Z,7.60
2023-04-09T07:26:52.091Z,7.90
2023-04-09T07:29:22.703Z,7.40
2023-04-09T07:31:52.332Z,7.40
2023-04-09T07:34:22.121Z,7.60
2023-04-09T07:36:51.451Z,7.80
2023-04-09T07:39:21.297Z,7.50
2023-04-09T07:41:51.056Z,7.40
2023-04-09T07:44:19.753Z,7.50
2023-04-09T07:46:52.366Z,6.60
2023-04-09T07:49:22.388Z,7.40
2023-04-09T07:51:51.364Z,6.80
2023-04-09T07:54:23.506Z,7.40
2023-04-09T07:56:52.566Z,6.90
2023-04-09T07:59:21.228Z,7.20
2023-04-09T08:01:51.276Z,7.30
2023-04-09T08:04:19.797Z,7.20
2023-04-09T08:06:50.942Z,7.00
2023-04-09T08:09:20.969Z,6.90
2023-04-09T08:11:49.683Z,6.70
2023-04-09T08:14:18.130Z,6.80
2023-04-09T08:16:47.876Z,6.80
2023-04-09T08:19:17.475Z,6.80
2023-04-09T08:21:46.462Z,6.90
2023-04-09T08:24:15.109Z,6.30
2023-04-09T08:26:43.758Z,6.80
2023-04-09T08:29:13.234Z,5.80
2023-04-09T08:31:44.411Z,6.10
2023-04-09T08:34:13.309Z,6.90
2023-04-09T08:36:45.936Z,6.20
2023-04-09T08:39:14.212Z,6.50
2023-04-09T08:41:46.043Z,7.10
2023-04-09T08:44:14.626Z,6.00
2023-04-09T08:46:43.522Z,6.40
2023-04-09T08:49:13.194Z,5.80
2023-04-09T08:51:48.283Z,5.90
2023-04-09T08:54:20.491Z,6.10
2023-04-09T08:56:48.932Z,5.60
2023-04-09T08:59:18.753Z,6.00
2023-04-09T09:01:49.640Z,5.80
2023-04-09T09:04:18.204Z,5.80
2023-04-09T09:06:51.516Z,5.60
2023-04-09T09:09:19.862Z,5.10
2023-04-09T09:11:50.490Z,5.60
2023-04-09T09:14:21.703Z,5.30
2023-04-09T09:17:06.598Z,5.30
2023-04-09T09:19:36.060Z,5.40
2023-04-09T09:22:11.220Z,5.30
2023-04-09T09:24:51.589Z,5.70
2023-04-09T09:27:37.235Z,5.50
2023-04-09T09:30:07.430Z,5.90
2023-04-09T09:32:36.676Z,5.50
2023-04-09T09:35:06.486Z,5.50
2023-04-09T09:37:34.814Z,5.60
2023-04-09T09:40:03.890Z,5.50
2023-04-09T09:42:38.474Z,5.50
2023-04-09T09:45:17.932Z,4.90
2023-04-09T09:47:49.023Z,5.30
2023-04-09T09:50:18.024Z,5.00
2023-04-09T09:52:47.165Z,4.50
2023-04-09T09:55:15.832Z,4.30
2023-04-09T09:57:44.956Z,4.60
2023-04-09T10:00:18.634Z,3.70
2023-04-09T10:02:59.704Z,4.00
2023-04-09T10:05:29.168Z,3.80
2023-04-09T10:07:58.558Z,3.70
2023-04-09T10:10:27.768Z,3.70
2023-04-09T10:12:56.628Z,3.70
2023-04-09T10:15:28.793Z,3.90
2023-04-09T10:17:57.910Z,3.60
2023-04-09T10:20:34.970Z,3.80
2023-04-09T10:23:06.671Z,4.60
2023-04-09T10:25:36.351Z,3.70
2023-04-09T10:28:12.457Z,4.60
2023-04-09T10:30:40.720Z,6.50
2023-04-09T10:33:28.362Z,6.60
2023-04-09T10:36:04.873Z,6.30
2023-04-09T10:38:45.543Z,6.50
2023-04-09T10:41:25.114Z,6.90
2023-04-09T10:43:55.760Z,6.80
2023-04-09T10:46:31.163Z,6.60
2023-04-09T10:49:19.908Z,5.90
2023-04-09T10:51:53.662Z,5.40
2023-04-09T10:54:35.529Z,5.80
2023-04-09T10:57:08.624Z,5.40
2023-04-09T11:00:04.363Z,4.70
2023-04-09T11:02:40.347Z,4.90
2023-04-09T11:05:20.170Z,5.20
2023-04-09T11:08:12.799Z,5.40
2023-04-09T11:10:44.212Z,6.10
2023-04-09T11:13:15.251Z,6.30
2023-04-09T11:15:47.713Z,5.80
2023-04-09T11:18:25.543Z,5.60
2023-04-09T11:21:13.799Z,5.90
2023-04-09T11:23:43.386Z,5.80
2023-04-09T11:28:44.351Z,6.20
2023-04-09T11:31:13.502Z,6.20
2023-04-09T11:33:49.354Z,5.90
2023-04-09T11:36:18.133Z,6.40
2023-04-09T11:38:50.831Z,6.40
2023-04-09T11:41:19.581Z,5.80
2023-04-09T11:43:53.363Z,6.80
2023-04-09T11:46:33.336Z,7.00
2023-04-09T11:49:08.655Z,6.50
2023-04-09T11:51:37.033Z,6.80
2023-04-09T11:54:08.528Z,6.70
2023-04-09T11:56:38.644Z,5.90
2023-04-09T11:59:27.098Z,5.70
2023-04-09T12:01:58.941Z,5.90
2023-04-09T12:04:30.707Z,5.90
2023-04-09T12:07:09.908Z,5.20
2023-04-09T12:09:49.070Z,5.30
2023-04-09T12:12:21.083Z,5.40
2023-04-09T12:14:57.302Z,4.80
2023-04-09T12:17:27.326Z,5.00
2023-04-09T12:20:43.854Z,4.60
2023-04-09T12:23:27.214Z,4.70
2023-04-09T12:25:56.849Z,4.40
2023-04-09T12:28:26.970Z,4.80
2023-04-09T12:30:59.706Z,5.00
2023-04-09T12:33:48.103Z,4.90
2023-04-09T12:36:16.686Z,4.50
2023-04-09T12:38:45.693Z,4.80
2023-04-09T12:41:16.607Z,4.60
2023-04-09T12:43:46.159Z,5.10
2023-04-09T12:46:15.798Z,5.30
2023-04-09T12:48:46.861Z,5.10
2023-04-09T12:51:17.152Z,5.50
2023-04-09T12:53:46.940Z,5.10
2023-04-09T12:56:15.291Z,4.80
2023-04-09T12:58:46.288Z,5.00
2023-04-09T13:01:16.141Z,4.70
2023-04-09T13:03:46.151Z,4.40
2023-04-09T13:06:17.352Z,4.30
2023-04-09T13:08:46.064Z,4.30
2023-04-09T13:11:19.772Z,4.30
2023-04-09T13:13:48.336Z,4.20
2023-04-09T13:16:17.126Z,4.40
2023-04-09T13:18:45.986Z,4.50
2023-04-09T13:21:19.058Z,4.50
2023-04-09T13:23:47.615Z,4.70
2023-04-09T13:26:16.585Z,4.00
2023-04-09T13:28:48.363Z,4.20
2023-04-09T13:31:16.891Z,4.50
2023-04-09T13:34:06.619Z,4.80
2023-04-09T13:36:36.232Z,4.40
2023-04-09T13:39:06.074Z,4.00
2023-04-09T13:41:34.809Z,4.40
2023-04-09T13:44:04.151Z,4.70
2023-04-09T13:46:37.635Z,5.10
2023-04-09T13:49:06.214Z,4.80
2023-04-09T13:51:40.248Z,4.60
2023-04-09T13:54:11.572Z,4.70
2023-04-09T13:56:41.443Z,4.80
2023-04-09T13:59:09.635Z,4.40
2023-04-09T14:01:41.183Z,4.70
2023-04-09T14:04:09.726Z,4.30
2023-04-09T14:06:38.301Z,4.50
2023-04-09T14:09:06.931Z,4.50
2023-04-09T14:11:37.884Z,4.80
2023-04-09T14:14:06.855Z,4.70
2023-04-09T14:16:38.357Z,4.70
2023-04-09T14:19:10.315Z,4.70
2023-04-09T14:21:43.769Z,5.00
2023-04-09T14:24:12.109Z,5.30
2023-04-09T14:26:42.932Z,4.60
2023-04-09T14:29:14.092Z,5.00
2023-04-09T14:31:43.123Z,4.50
2023-04-09T14:34:12.303Z,4.60
2023-04-09T14:36:41.094Z,4.40
2023-04-09T14:39:09.835Z,4.20
2023-04-09T14:41:43.078Z,4.10
2023-04-09T14:44:17.519Z,3.70
2023-04-09T14:47:05.700Z,4.40
2023-04-09T14:49:53.998Z,4.10
2023-04-09T14:52:26.094Z,4.30
2023-04-09T14:55:15.058Z,4.10
2023-04-09T14:57:43.396Z,4.20
2023-04-09T15:00:12.274Z,3.90
2023-04-09T15:02:41.718Z,4.10
2023-04-09T15:05:14.879Z,3.80
2023-04-09T15:07:49.199Z,3.80
2023-04-09T15:10:21.106Z,4.30
2023-04-09T15:12:53.733Z,3.80
2023-04-09T15:15:24.637Z,3.80
2023-04-09T15:18:06.066Z,3.90
2023-04-09T15:20:39.796Z,4.00
2023-04-09T15:23:14.421Z,4.00
2023-04-09T15:25:59.308Z,4.10
2023-04-09T15:28:33.170Z,4.30
2023-04-09T15:31:04.948Z,4.10
2023-04-09T15:33:53.257Z,4.50
2023-04-09T15:36:29.379Z,4.20
2023-04-09T15:38:59.443Z,4.60
2023-04-09T15:41:27.805Z,4.80
2023-04-09T15:44:12.738Z,4.50
2023-04-09T15:46:57.123Z,4.10
2023-04-09T15:49:27.722Z,4.20
2023-04-09T15:52:01.471Z,4.30
2023-04-09T15:54:30.174Z,4.20
2023-04-09T15:57:04.498Z,4.40
2023-04-09T15:59:33.930Z,4.40
2023-04-09T16:02:04.764Z,4.20
2023-04-09T16:04:41.435Z,4.10
2023-04-09T16:07:11.061Z,4.30
2023-04-09T16:09:41.783Z,4.40
2023-04-09T16:12:13.043Z,4.50
2023-04-09T16:14:43.606Z,4.30
2023-04-09T16:17:12.576Z,4.50
2023-04-09T16:19:44.170Z,4.50
2023-04-09T16:22:15.072Z,4.40
2023-04-09T16:24:47.399Z,4.20
2023-04-09T16:27:22.946Z,4.40
2023-04-09T16:29:57.951Z,4.20
2023-04-09T16:32:32.834Z,4.50
2023-04-09T16:35:04.488Z,4.50
2023-04-09T16:37:36.508Z,4.70
2023-04-09T16:40:05.739Z,4.40
2023-04-09T16:42:39.371Z,4.30
2023-04-09T16:45:12.240Z,4.40
2023-04-09T16:48:00.809Z,4.20
2023-04-09T16:50:33.256Z,4.80
2023-04-09T17:00:45.322Z,4.50
2023-04-09T17:03:17.411Z,4.30
2023-04-09T17:05:50.040Z,4.10
2023-04-09T17:08:21.749Z,4.10
2023-04-09T17:10:52.074Z,4.40
2023-04-09T17:13:24.862Z,4.20
2023-04-09T17:15:56.277Z,4.10
2023-04-09T17:18:45.610Z,4.20
2023-04-09T17:21:28.765Z,4.60
2023-04-09T17:24:04.394Z,4.30
2023-04-09T17:26:34.907Z,4.60
2023-04-09T17:29:04.169Z,4.40
2023-04-09T17:31:35.385Z,4.80
2023-04-09T17:34:19.702Z,4.70
2023-04-09T17:36:56.785Z,4.90
2023-04-09T17:39:33.122Z,5.10
2023-04-09T17:42:04.633Z,5.10
2023-04-09T17:44:39.753Z,5.00
2023-04-09T17:47:12.690Z,5.00
2023-04-09T17:49:42.942Z,5.30
2023-04-09T17:52:16.477Z,5.10
2023-04-09T17:54:46.881Z,5.30
2023-04-09T17:57:20.877Z,5.40
2023-04-09T17:59:51.196Z,5.70
2023-04-09T18:02:24.308Z,6.10
2023-04-09T18:04:53.783Z,6.20
2023-04-09T18:07:22.601Z,5.90
2023-04-09T18:09:52.992Z,6.10
2023-04-09T18:12:22.020Z,6.10
2023-04-09T18:15:04.699Z,6.30
2023-04-09T18:17:41.589Z,6.10
2023-04-09T18:20:15.751Z,6.00
2023-04-09T18:22:44.449Z,6.40
2023-04-09T18:25:13.778Z,5.70
2023-04-09T18:27:44.352Z,6.40
2023-04-09T18:30:15.839Z,6.90
2023-04-09T18:32:45.305Z,7.10
2023-04-09T18:35:14.683Z,6.80
2023-04-09T18:37:43.850Z,6.90
2023-04-09T18:40:20.323Z,7.50
2023-04-09T18:42:54.592Z,7.80
2023-04-09T18:45:25.824Z,7.60
2023-04-09T18:48:01.810Z,7.50
2023-04-09T18:50:35.908Z,7.70
2023-04-09T18:53:09.700Z,8.00
2023-04-09T18:55:38.615Z,8.20
2023-04-09T18:58:09.053Z,7.80
2023-04-09T19:00:40.736Z,7.60
2023-04-09T19:03:09.263Z,8.00
2023-04-09T19:05:38.426Z,8.00
2023-04-09T19:08:07.754Z,8.20
2023-04-09T19:10:39.949Z,8.60
2023-04-09T19:13:08.718Z,8.30
2023-04-09T19:15:38.821Z,8.60
2023-04-09T19:18:07.149Z,8.80
2023-04-09T19:20:38.287Z,8.90
2023-04-09T19:23:07.117Z,9.10
2023-04-09T19:25:37.070Z,9.50
2023-04-09T19:28:05.439Z,9.00
2023-04-09T19:30:33.768Z,9.40
2023-04-09T19:33:09.623Z,9.80
2023-04-09T19:35:41.012Z,9.60
2023-04-09T19:38:15.209Z,10.00
2023-04-09T19:40:46.548Z,10.00
2023-04-09T19:43:14.888Z,10.00
2023-04-09T19:45:44.596Z,9.70
2023-04-09T19:48:13.004Z,9.70
2023-04-09T19:50:48.660Z,10.10
2023-04-09T19:53:18.776Z,9.80
2023-04-09T19:55:47.128Z,9.80
2023-04-09T19:58:15.615Z,10.40
2023-04-09T20:00:45.131Z,10.30
2023-04-09T20:03:14.338Z,10.20
2023-04-09T20:05:43.230Z,9.80
2023-04-09T20:08:14.387Z,10.30
2023-04-09T20:10:47.042Z,10.50
2023-04-09T20:13:17.916Z,9.70
2023-04-09T20:15:47.088Z,10.00
2023-04-09T20:18:20.637Z,10.70
2023-04-09T20:20:51.116Z,10.40
2023-04-09T20:23:19.340Z,10.20
2023-04-09T20:25:56.514Z,10.10
2023-04-09T20:28:24.999Z,10.50
2023-04-09T20:30:53.731Z,11.30
2023-04-09T20:33:22.192Z,10.40
2023-04-09T20:35:52.505Z,10.40
2023-04-09T20:38:21.807Z,10.70
2023-04-09T20:40:52.429Z,10.40
2023-04-09T20:43:21.466Z,10.40
2023-04-09T20:45:59.890Z,10.40
2023-04-09T20:48:34.454Z,10.20
2023-04-09T20:51:04.076Z,10.70
2023-04-09T20:53:32.630Z,11.00
2023-04-09T20:56:02.283Z,11.10
2023-04-09T20:58:32.277Z,10.70
2023-04-09T21:01:08.468Z,10.80
2023-04-09T21:03:38.045Z,11.30
2023-04-09T21:06:07.447Z,11.00
2023-04-09T21:08:36.821Z,10.50
2023-04-09T21:11:05.870Z,11.20
2023-04-09T21:13:51.100Z,10.50
2023-04-09T21:16:26.373Z,10.20
2023-04-09T21:18:54.892Z,10.50
2023-04-09T21:21:34.562Z,10.90
2023-04-09T21:24:04.237Z,10.80
2023-04-09T21:26:49.220Z,10.50
2023-04-09T21:29:21.943Z,10.20
2023-04-09T21:31:50.735Z,10.70
2023-04-09T21:34:18.917Z,10.70
2023-04-09T21:36:47.406Z,10.40
2023-04-09T21:39:16.216Z,11.30
2023-04-09T21:41:44.487Z,11.90
2023-04-09T21:44:13.986Z,11.10
2023-04-09T21:46:42.266Z,11.60
2023-04-09T21:49:11.075Z,11.40
2023-04-09T21:51:39.444Z,11.50
2023-04-09T21:54:10.039Z,10.70
2023-04-09T21:56:39.878Z,10.30
2023-04-09T21:59:10.127Z,11.10
2023-04-09T22:01:38.787Z,10.70
2023-04-09T22:04:07.569Z,10.40
2023-04-09T22:06:40.503Z,10.30
2023-04-09T22:09:08.979Z,10.70
2023-04-09T22:11:41.407Z,9.90
2023-04-09T22:14:12.869Z,10.00
2023-04-09T22:16:42.423Z,10.20
2023-04-09T22:19:13.252Z,10.20
2023-04-09T22:21:42.602Z,10.30
2023-04-09T22:24:10.895Z,10.10
2023-04-09T22:26:41.076Z,9.80
2023-04-09T22:29:10.538Z,10.50
2023-04-09T22:31:39.583Z,10.70
2023-04-09T22:34:20.064Z,9.20
2023-04-09T22:36:50.235Z,10.50
2023-04-09T22:39:18.851Z,9.70
2023-04-09T22:41:47.125Z,9.90
2023-04-09T22:44:16.197Z,10.60
2023-04-09T22:46:46.589Z,10.60
2023-04-09T22:49:14.895Z,11.00
2023-04-09T22:51:44.584Z,11.30
2023-04-09T22:54:13.550Z,11.00
2023-04-09T22:56:41.895Z,10.70
2023-04-09T22:59:11.299Z,11.10
2023-04-09T23:01:40.120Z,11.40
2023-04-09T23:04:11.229Z,11.20
2023-04-09T23:06:40.840Z,10.80
2023-04-09T23:09:09.078Z,10.70
2023-04-09T23:11:47.282Z,10.40
2023-04-09T23:14:15.797Z,10.10
2023-04-09T23:16:44.071Z,9.80
2023-04-09T23:19:12.663Z,10.50
2023-04-09T23:21:41.028Z,10.10
2023-04-09T23:24:09.354Z,9.90
2023-04-09T23:26:38.143Z,10.30
2023-04-09T23:29:06.415Z,9.70
2023-04-09T23:31:38.376Z,9.80
2023-04-09T23:34:06.786Z,9.80
2023-04-09T23:36:35.196Z,9.70
2023-04-09T23:39:03.574Z,10.30
2023-04-09T23:41:32.114Z,9.40
2023-04-09T23:46:34.740Z,9.70
2023-04-09T23:49:03.037Z,9.30
2023-04-09T23:51:33.720Z,9.70
2023-04-09T23:54:02.147Z,9.40
2023-04-09T23:56:37.784Z,9.50
2023-04-09T23:59:06.602Z,9.00
